Crouch End, United Kingdom
Current Conditions -  °F | °C
As of 4:50 AM on Sunday 23 Nov 2014 (Local Time) from EGLC Reporting Station
Moderate Rain Moderate Rain  
Wind Chill: 54°   Ceiling: Unl
Heat Index: 54°   Visibility: 4mi
Dew Point: 52°   Wind: 6mph
Humidity: 94%   Direction: 330°NNW
Pressure: 29.94"   Gusts: NA
Location:  51.58°N, 0.12°W
Report Text: EGLC 230450Z AUTO 33005KT 280V010 7000 RA FEW003/// SCT004/// 12/11 Q1014
Loading
Personal Weather Stations






























Interactive Weather Map New forecast layout! Learn more

10-Day Weather Forecast

Advertisements
Track Severe Weather on mobile